Time;durP1;ratioP1;P1;durP2;ratioP2;P2;SDS_P1;SDS_P2;PMS_P1;PMS_P2;Temp;Humidity;BMP_temperature;BMP_pressure;BME280_temperature;BME280_humidity;BME280_pressure;Samples;Min_cycle;Max_cycle;Signal;HPM_P1;HPM_P2
2023/04/09 00:01:50;;;;;;;29.20;20.27;;;8.00;99.90;;;;;;4773702;30;20211;-81
2023/04/09 00:04:16;;;;;;;26.90;19.03;;;8.00;99.90;;;;;;4789817;30;20179;-81
2023/04/09 00:06:41;;;;;;;27.00;19.57;;;8.00;99.90;;;;;;4789502;30;20219;-81
2023/04/09 00:09:07;;;;;;;27.53;19.63;;;8.00;99.90;;;;;;4772483;30;20430;-81
2023/04/09 00:11:32;;;;;;;27.70;19.87;;;8.00;99.90;;;;;;4773528;30;20260;-81
2023/04/09 00:13:58;;;;;;;27.70;19.03;;;8.00;99.90;;;;;;4773392;30;20191;-81
2023/04/09 00:16:24;;;;;;;25.90;19.00;;;8.10;99.90;;;;;;4789597;30;20301;-81
2023/04/09 00:18:50;;;;;;;28.25;19.55;;;8.10;99.90;;;;;;4789455;30;20626;-82
2023/04/09 00:21:16;;;;;;;26.60;20.80;;;8.10;99.90;;;;;;4773249;30;20246;-82
2023/04/09 00:23:42;;;;;;;29.33;20.60;;;8.00;99.90;;;;;;4773256;30;20487;-81
2023/04/09 00:26:08;;;;;;;28.55;19.95;;;8.00;99.90;;;;;;4773178;30;20447;-81
2023/04/09 00:28:34;;;;;;;27.33;20.67;;;8.00;99.90;;;;;;4789322;30;20558;-81
2023/04/09 00:31:01;;;;;;;27.55;20.02;;;8.10;99.90;;;;;;4773042;30;20257;-81
2023/04/09 00:33:26;;;;;;;26.30;18.58;;;8.10;99.90;;;;;;4773063;30;20562;-81
2023/04/09 00:35:52;;;;;;;27.90;19.67;;;8.10;99.90;;;;;;4789091;30;20191;-81
2023/04/09 00:38:18;;;;;;;26.60;20.10;;;8.10;99.90;;;;;;4773006;30;20183;-81
2023/04/09 00:40:48;;;;;;;29.07;20.20;;;8.10;99.90;;;;;;4788956;30;20418;-81
2023/04/09 00:43:14;;;;;;;26.95;19.42;;;8.10;99.90;;;;;;4773005;30;20207;-81
2023/04/09 00:45:40;;;;;;;25.10;18.88;;;8.10;99.90;;;;;;4772908;30;20187;-81
2023/04/09 00:48:07;;;;;;;25.80;19.33;;;8.10;99.90;;;;;;4789031;30;20246;-81
2023/04/09 00:50:33;;;;;;;26.90;20.80;;;8.10;99.90;;;;;;4772804;30;20223;-81
2023/04/09 00:52:59;;;;;;;28.27;19.77;;;8.10;99.90;;;;;;4788847;30;20307;-81
2023/04/09 00:55:25;;;;;;;25.40;19.70;;;8.10;99.90;;;;;;4789017;30;20245;-81
2023/04/09 00:57:51;;;;;;;27.48;19.58;;;8.10;99.90;;;;;;4772565;30;20222;-81
2023/04/09 01:00:17;;;;;;;27.17;20.57;;;8.00;99.90;;;;;;4788899;30;20554;-81
2023/04/09 01:02:44;;;;;;;26.00;19.30;;;8.00;99.90;;;;;;4789197;30;20576;-82
2023/04/09 01:05:11;;;;;;;28.80;20.45;;;8.00;99.90;;;;;;4788841;30;20419;-81
2023/04/09 01:07:55;;;;;;;28.20;21.10;;;8.00;99.90;;;;;;4772685;30;20211;-81
2023/04/09 01:10:52;;;;;;;28.17;20.35;;;8.00;99.90;;;;;;4788762;30;20291;-81
2023/04/09 01:13:47;;;;;;;24.52;19.05;;;8.00;99.90;;;;;;4772709;30;20244;-82
2023/04/09 01:16:15;;;;;;;28.17;20.65;;;8.10;99.90;;;;;;4772408;30;20211;-82
2023/04/09 01:18:50;;;;;;;30.38;20.48;;;8.00;99.90;;;;;;4788614;30;20548;-82
2023/04/09 01:21:20;;;;;;;31.52;19.73;;;7.90;99.90;;;;;;4788319;29;20230;-81
2023/04/09 01:24:10;;;;;;;28.35;19.65;;;8.00;99.90;;;;;;4788573;30;20729;-81
2023/04/09 01:26:57;;;;;;;25.50;19.45;;;8.00;99.90;;;;;;4788684;30;20210;-81
2023/04/09 01:29:24;;;;;;;29.02;19.95;;;8.00;99.90;;;;;;4788518;30;20186;-81
2023/04/09 01:31:52;;;;;;;28.00;20.90;;;8.00;99.90;;;;;;4772428;30;20211;-81
2023/04/09 01:34:19;;;;;;;28.95;19.52;;;8.00;99.90;;;;;;4788479;30;20650;-81
2023/04/09 01:36:49;;;;;;;29.20;19.92;;;8.00;99.90;;;;;;4772317;30;20215;-81
2023/04/09 01:39:16;;;;;;;28.63;19.40;;;8.00;99.90;;;;;;4788591;30;20190;-82
2023/04/09 01:41:42;;;;;;;30.73;20.98;;;8.00;99.90;;;;;;4772337;30;20214;-81
2023/04/09 01:44:10;;;;;;;29.80;20.58;;;8.00;99.90;;;;;;4772468;30;20609;-82
2023/04/09 01:46:38;;;;;;;30.25;20.63;;;8.00;99.90;;;;;;4771998;30;20293;-82
2023/04/09 01:49:04;;;;;;;28.48;20.10;;;8.00;99.90;;;;;;4772207;30;20537;-82
2023/04/09 01:51:32;;;;;;;29.60;21.00;;;7.90;99.90;;;;;;4772180;30;20396;-81
2023/04/09 01:53:59;;;;;;;29.48;21.80;;;7.90;99.90;;;;;;4772128;30;20190;-81
2023/04/09 01:56:25;;;;;;;32.15;22.52;;;7.80;99.90;;;;;;4788343;30;20207;-81
2023/04/09 01:58:52;;;;;;;28.92;21.77;;;7.90;99.90;;;;;;4788278;30;20656;-81
2023/04/09 02:01:44;;;;;;;31.10;22.35;;;7.90;99.90;;;;;;4788326;30;20679;-81
2023/04/09 02:04:25;;;;;;;35.08;22.98;;;7.90;99.90;;;;;;4788290;30;20175;-81
2023/04/09 02:07:00;;;;;;;32.17;21.45;;;7.90;99.90;;;;;;4788408;30;20211;-81
2023/04/09 02:09:30;;;;;;;32.60;21.30;;;7.90;99.90;;;;;;4771941;30;20190;-81
2023/04/09 02:11:59;;;;;;;29.23;22.55;;;7.80;99.90;;;;;;4772004;30;20759;-81
2023/04/09 02:14:26;;;;;;;27.73;20.65;;;7.80;99.90;;;;;;4772043;30;20555;-81
2023/04/09 02:16:52;;;;;;;30.40;21.17;;;7.80;99.90;;;;;;4787918;30;20549;-80
2023/04/09 02:19:18;;;;;;;33.15;23.48;;;7.80;99.90;;;;;;4788148;30;20645;-81
2023/04/09 02:21:45;;;;;;;30.20;21.93;;;7.70;99.90;;;;;;4788076;30;20272;-81
2023/04/09 02:24:10;;;;;;;30.27;22.70;;;7.70;99.90;;;;;;4788113;30;20577;-81
2023/04/09 02:26:36;;;;;;;31.43;22.33;;;7.70;99.90;;;;;;4771795;30;20215;-81
2023/04/09 02:29:02;;;;;;;32.70;22.23;;;7.70;99.90;;;;;;4788044;30;20785;-81
2023/04/09 02:31:28;;;;;;;28.03;20.07;;;7.70;99.90;;;;;;4787938;29;20775;-81
2023/04/09 02:33:54;;;;;;;33.33;21.27;;;7.80;99.90;;;;;;4791061;30;20806;-81
2023/04/09 02:36:19;;;;;;;29.03;20.43;;;7.80;99.90;;;;;;4775076;30;20207;-81
2023/04/09 02:38:45;;;;;;;28.40;21.50;;;7.70;99.90;;;;;;4774998;30;20423;-81
2023/04/09 02:41:11;;;;;;;32.83;23.50;;;7.70;99.90;;;;;;4791236;30;20218;-81
2023/04/09 02:43:37;;;;;;;30.58;19.75;;;7.70;99.90;;;;;;4774947;30;20225;-81
2023/04/09 02:46:03;;;;;;;33.90;22.60;;;7.70;99.90;;;;;;4790889;30;20183;-81
2023/04/09 02:48:29;;;;;;;30.52;21.38;;;7.60;99.90;;;;;;4791073;30;20484;-82
2023/04/09 02:50:55;;;;;;;31.00;21.67;;;7.60;99.90;;;;;;4790767;30;20681;-81
2023/04/09 02:53:21;;;;;;;29.35;21.70;;;7.60;99.90;;;;;;4790938;30;20796;-82
2023/04/09 02:55:47;;;;;;;32.53;22.77;;;7.60;99.90;;;;;;4790806;30;20190;-81
2023/04/09 02:58:13;;;;;;;30.35;21.63;;;7.50;99.90;;;;;;4790722;30;20195;-81
2023/04/09 03:00:39;;;;;;;32.20;22.13;;;7.60;99.90;;;;;;4774561;30;20274;-81
2023/04/09 03:03:05;;;;;;;30.90;21.97;;;7.50;99.90;;;;;;4790708;30;20286;-81
2023/04/09 03:05:30;;;;;;;28.60;20.97;;;7.40;99.90;;;;;;4790702;30;20614;-82
2023/04/09 03:07:56;;;;;;;29.17;20.03;;;7.50;99.90;;;;;;4774721;30;20219;-82
2023/04/09 03:10:22;;;;;;;30.63;21.47;;;7.50;99.90;;;;;;4790631;30;20215;-81
2023/04/09 03:12:48;;;;;;;28.33;21.42;;;7.40;99.90;;;;;;4790958;30;20233;-82
2023/04/09 03:15:14;;;;;;;31.70;20.77;;;7.40;99.90;;;;;;4774431;30;20605;-81
2023/04/09 03:17:40;;;;;;;31.08;22.60;;;7.40;99.90;;;;;;4790840;30;20673;-81
2023/04/09 03:20:07;;;;;;;30.10;21.33;;;7.30;99.90;;;;;;4774491;30;20187;-81
2023/04/09 03:22:36;;;;;;;25.75;19.75;;;7.30;99.90;;;;;;4774169;30;20211;-81
2023/04/09 03:25:02;;;;;;;30.48;21.75;;;7.20;99.90;;;;;;4790400;30;20240;-81
2023/04/09 03:27:28;;;;;;;27.42;19.75;;;7.20;99.90;;;;;;4774252;30;20218;-81
2023/04/09 03:29:57;;;;;;;30.60;22.00;;;7.30;99.90;;;;;;4790272;30;20219;-81
2023/04/09 03:32:23;;;;;;;28.98;21.05;;;7.20;99.90;;;;;;4774152;30;20467;-82
2023/04/09 03:34:48;;;;;;;31.00;22.00;;;7.20;99.90;;;;;;4790398;30;20186;-81
2023/04/09 03:37:14;;;;;;;31.27;21.77;;;7.10;99.90;;;;;;4790491;30;20243;-81
2023/04/09 03:39:40;;;;;;;31.33;22.97;;;7.20;99.90;;;;;;4773998;30;20187;-81
2023/04/09 03:42:06;;;;;;;35.20;24.90;;;7.10;99.90;;;;;;4790338;30;20969;-81
2023/04/09 03:44:31;;;;;;;37.40;26.83;;;7.00;99.90;;;;;;4789942;29;20260;-81
2023/04/09 03:46:57;;;;;;;30.17;21.87;;;7.10;99.90;;;;;;4789865;30;20259;-81
2023/04/09 03:49:23;;;;;;;34.65;23.35;;;7.10;99.90;;;;;;4759453;30;20600;-80
2023/04/09 03:51:49;;;;;;;32.40;21.60;;;7.10;99.90;;;;;;4773703;30;20211;-81
2023/04/09 03:54:14;;;;;;;30.00;20.77;;;7.10;99.90;;;;;;4773788;30;20187;-81
2023/04/09 03:56:40;;;;;;;32.17;21.97;;;7.00;99.90;;;;;;4773693;30;20210;-82
2023/04/09 03:59:06;;;;;;;36.47;22.10;;;7.10;99.90;;;;;;4789926;30;20721;-81
2023/04/09 04:01:32;;;;;;;33.73;24.13;;;7.10;99.90;;;;;;4773698;30;20211;-81
2023/04/09 04:03:57;;;;;;;35.63;21.63;;;7.10;99.90;;;;;;4773495;30;20442;-81
2023/04/09 04:06:23;;;;;;;31.77;21.97;;;7.00;99.90;;;;;;4773640;30;20224;-81
2023/04/09 04:08:48;;;;;;;38.20;24.70;;;7.00;99.90;;;;;;4773595;30;20195;-82
2023/04/09 04:11:14;;;;;;;33.23;23.67;;;7.00;99.90;;;;;;4789523;30;20227;-81
2023/04/09 04:13:40;;;;;;;31.87;21.93;;;7.10;99.90;;;;;;4789598;30;20646;-81
2023/04/09 04:16:07;;;;;;;32.20;22.77;;;7.10;99.90;;;;;;4773311;30;20447;-81
2023/04/09 04:18:33;;;;;;;34.17;22.45;;;7.10;99.90;;;;;;4789569;30;20194;-81
2023/04/09 04:20:59;;;;;;;34.10;23.40;;;7.00;99.90;;;;;;4773300;30;20195;-81
2023/04/09 04:23:25;;;;;;;35.50;24.20;;;7.00;99.90;;;;;;4789426;30;20568;-81
2023/04/09 04:25:51;;;;;;;32.90;24.33;;;6.90;99.90;;;;;;4773067;30;20191;-81
2023/04/09 04:28:17;;;;;;;40.17;26.23;;;6.90;99.90;;;;;;4789305;30;20184;-80
2023/04/09 04:30:43;;;;;;;33.75;24.20;;;6.90;99.90;;;;;;4773014;30;20354;-81
2023/04/09 04:33:09;;;;;;;44.97;31.20;;;6.90;99.90;;;;;;4772995;30;20211;-81
2023/04/09 04:35:34;;;;;;;60.50;36.83;;;6.90;99.90;;;;;;4789284;30;20211;-81
2023/04/09 04:38:00;;;;;;;55.67;34.20;;;6.90;99.90;;;;;;4789515;30;20207;-81
2023/04/09 04:40:26;;;;;;;45.30;29.33;;;6.90;99.90;;;;;;4789179;30;20210;-81
2023/04/09 04:42:52;;;;;;;39.20;27.87;;;6.90;99.90;;;;;;4789423;30;20207;-81
2023/04/09 04:45:17;;;;;;;38.00;26.83;;;6.90;99.90;;;;;;4772974;30;20191;-81
2023/04/09 04:47:43;;;;;;;38.77;26.63;;;6.90;99.90;;;;;;4772861;30;20238;-81
2023/04/09 04:50:09;;;;;;;37.20;26.80;;;7.00;99.90;;;;;;4772861;30;20600;-81
2023/04/09 04:52:35;;;;;;;43.30;29.35;;;7.00;99.90;;;;;;4789289;30;20284;-81
2023/04/09 04:55:01;;;;;;;41.42;28.20;;;7.10;99.90;;;;;;4788415;30;20183;-81
2023/04/09 04:57:27;;;;;;;35.10;25.10;;;7.10;99.90;;;;;;4772883;30;20218;-81
2023/04/09 04:59:53;;;;;;;36.67;24.40;;;7.10;99.90;;;;;;4788929;30;20180;-81
2023/04/09 05:02:19;;;;;;;36.07;25.03;;;7.10;99.90;;;;;;4789135;30;20297;-81
2023/04/09 05:04:44;;;;;;;37.90;24.83;;;7.10;99.90;;;;;;4772904;30;20187;-81
2023/04/09 05:07:10;;;;;;;37.70;25.20;;;7.10;99.90;;;;;;4788629;30;20666;-81
2023/04/09 05:09:36;;;;;;;34.23;24.23;;;7.10;99.90;;;;;;4772586;30;20282;-81
2023/04/09 05:12:01;;;;;;;37.83;26.33;;;7.20;99.90;;;;;;4788982;30;20222;-81
2023/04/09 05:14:27;;;;;;;40.40;25.40;;;7.20;99.90;;;;;;4772623;30;20556;-81
2023/04/09 05:16:53;;;;;;;37.10;26.40;;;7.30;99.90;;;;;;4772451;30;20210;-81
2023/04/09 05:19:18;;;;;;;38.67;25.17;;;7.30;99.90;;;;;;4772588;30;20282;-81
2023/04/09 05:21:44;;;;;;;37.20;24.40;;;7.30;99.90;;;;;;4772464;30;20582;-81
2023/04/09 05:24:10;;;;;;;32.93;22.57;;;7.40;99.90;;;;;;4788607;30;20232;-81
2023/04/09 05:26:37;;;;;;;32.70;23.70;;;7.40;99.90;;;;;;4788515;30;20705;-81
2023/04/09 05:29:02;;;;;;;36.30;24.48;;;7.40;99.90;;;;;;4772385;30;20184;-81
2023/04/09 05:31:28;;;;;;;35.30;23.53;;;7.50;99.90;;;;;;4788627;30;20669;-81
2023/04/09 05:33:54;;;;;;;35.00;23.23;;;7.60;99.90;;;;;;4788598;30;20183;-81
2023/04/09 05:36:19;;;;;;;36.50;24.60;;;7.70;99.90;;;;;;4788558;30;20238;-81
2023/04/09 05:38:46;;;;;;;31.03;22.00;;;7.60;99.90;;;;;;4788456;30;20216;-81
2023/04/09 05:41:12;;;;;;;33.95;24.40;;;7.70;99.90;;;;;;4772145;30;20210;-81
2023/04/09 05:43:38;;;;;;;32.45;23.73;;;7.80;99.90;;;;;;4772355;30;20566;-81
2023/04/09 05:46:04;;;;;;;33.40;23.83;;;7.80;99.90;;;;;;4771903;30;20199;-81
2023/04/09 05:48:29;;;;;;;34.90;24.60;;;7.90;99.90;;;;;;4772292;30;20199;-81
2023/04/09 05:50:55;;;;;;;37.17;26.13;;;8.00;99.90;;;;;;4788233;30;20842;-81
2023/04/09 05:53:21;;;;;;;31.70;22.80;;;8.10;99.90;;;;;;4788760;30;20544;-81
2023/04/09 05:55:50;;;;;;;34.77;23.10;;;8.20;99.90;;;;;;4772057;30;20947;-81
2023/04/09 05:58:20;;;;;;;30.40;21.75;;;8.10;99.90;;;;;;4788539;30;20534;-81
2023/04/09 06:00:46;;;;;;;30.58;22.17;;;8.20;99.90;;;;;;4772499;30;20728;-81
2023/04/09 06:03:11;;;;;;;32.20;21.13;;;8.30;99.90;;;;;;4788203;30;20214;-81
2023/04/09 06:05:37;;;;;;;31.40;21.70;;;8.30;99.90;;;;;;4772101;29;20194;-81
2023/04/09 06:08:03;;;;;;;31.50;22.87;;;8.40;99.90;;;;;;4775420;30;20230;-81
2023/04/09 06:10:30;;;;;;;30.57;22.17;;;8.40;99.90;;;;;;4791667;30;20227;-81
2023/04/09 06:12:56;;;;;;;28.85;19.92;;;8.40;99.90;;;;;;4791977;30;20269;-81
2023/04/09 06:15:22;;;;;;;30.50;20.50;;;8.50;99.90;;;;;;4791565;30;20703;-81
2023/04/09 06:17:50;;;;;;;34.07;21.40;;;8.50;99.90;;;;;;4775463;30;20211;-81
2023/04/09 06:20:16;;;;;;;29.00;20.30;;;8.60;99.90;;;;;;4791578;30;20198;-81
2023/04/09 06:22:42;;;;;;;33.30;21.40;;;8.60;99.90;;;;;;4775382;30;20669;-82
2023/04/09 06:25:08;;;;;;;28.80;20.00;;;8.70;99.90;;;;;;4775553;30;20191;-80
2023/04/09 06:27:33;;;;;;;27.20;19.70;;;8.80;99.90;;;;;;4791667;30;20455;-82
2023/04/09 06:29:59;;;;;;;24.40;18.67;;;8.90;99.90;;;;;;4775205;30;20309;-82
2023/04/09 06:32:25;;;;;;;27.80;19.60;;;8.90;99.90;;;;;;4791618;30;20199;-81
2023/04/09 06:34:50;;;;;;;22.93;16.93;;;9.00;99.90;;;;;;4791298;30;20875;-82
2023/04/09 06:37:16;;;;;;;24.30;18.70;;;9.10;99.90;;;;;;4775001;30;20219;-81
2023/04/09 06:39:42;;;;;;;24.60;17.80;;;9.10;99.90;;;;;;4775377;30;20669;-81
2023/04/09 06:42:07;;;;;;;24.57;18.47;;;9.20;99.90;;;;;;4775087;30;20264;-82
2023/04/09 06:44:34;;;;;;;26.00;18.27;;;9.20;99.90;;;;;;4791176;30;20189;-82
2023/04/09 06:46:59;;;;;;;24.77;18.38;;;9.20;99.90;;;;;;4790798;30;20279;-82
2023/04/09 06:49:25;;;;;;;30.17;19.90;;;9.20;99.90;;;;;;4774818;30;20183;-82
2023/04/09 06:51:54;;;;;;;26.27;18.67;;;9.30;99.90;;;;;;4791096;30;20204;-82
2023/04/09 06:54:20;;;;;;;24.85;18.10;;;9.30;99.90;;;;;;4774796;30;20439;-82
2023/04/09 06:56:46;;;;;;;28.20;19.23;;;9.30;99.90;;;;;;4774802;30;20215;-81
2023/04/09 06:59:12;;;;;;;29.27;19.97;;;9.40;99.90;;;;;;4790894;30;20391;-82
2023/04/09 07:01:38;;;;;;;27.60;19.10;;;9.40;99.90;;;;;;4790750;30;20249;-82
2023/04/09 07:04:04;;;;;;;29.13;19.50;;;9.50;99.90;;;;;;4774700;30;20187;-82
2023/04/09 07:06:30;;;;;;;25.00;18.42;;;9.60;99.90;;;;;;4774562;30;20451;-82
2023/04/09 07:08:56;;;;;;;26.10;19.90;;;9.70;99.90;;;;;;4774575;30;20191;-81
2023/04/09 07:11:21;;;;;;;22.63;17.37;;;9.80;99.90;;;;;;4790820;30;20253;-82
2023/04/09 07:13:47;;;;;;;29.57;19.33;;;9.90;99.90;;;;;;4790663;30;20179;-82
2023/04/09 07:16:13;;;;;;;23.73;18.77;;;10.00;99.90;;;;;;4790724;30;20207;-82
2023/04/09 07:18:39;;;;;;;29.67;19.10;;;10.10;99.90;;;;;;4773893;30;20188;-81
2023/04/09 07:21:04;;;;;;;27.30;18.53;;;10.20;99.90;;;;;;4774377;30;20194;-81
2023/04/09 07:23:33;;;;;;;27.03;19.83;;;10.30;99.90;;;;;;4774434;30;20556;-82
2023/04/09 07:26:02;;;;;;;24.20;18.23;;;10.40;99.90;;;;;;4774241;30;20282;-82
2023/04/09 07:28:28;;;;;;;24.10;18.50;;;10.50;99.90;;;;;;4774257;30;20199;-82
2023/04/09 07:30:54;;;;;;;28.13;19.57;;;10.60;99.90;;;;;;4774025;30;20314;-82
2023/04/09 07:33:19;;;;;;;25.80;18.50;;;10.80;99.90;;;;;;4774159;30;20539;-82
2023/04/09 07:35:45;;;;;;;21.10;17.13;;;11.00;99.90;;;;;;4774068;30;20196;-82
2023/04/09 07:38:11;;;;;;;21.07;17.30;;;11.10;99.90;;;;;;4774092;30;20207;-81
2023/04/09 07:40:37;;;;;;;26.90;19.20;;;11.30;99.90;;;;;;4790243;30;20510;-82
2023/04/09 07:43:04;;;;;;;24.83;17.40;;;11.40;99.90;;;;;;4774118;30;20317;-82
2023/04/09 07:45:30;;;;;;;23.90;18.90;;;11.60;99.90;;;;;;4790106;30;20186;-82
2023/04/09 07:47:56;;;;;;;26.63;19.50;;;11.70;99.90;;;;;;4773751;30;20254;-82
2023/04/09 07:50:21;;;;;;;23.17;19.10;;;11.80;99.90;;;;;;4790003;30;20528;-82
2023/04/09 07:52:48;;;;;;;31.57;22.43;;;12.00;99.90;;;;;;4789804;30;20234;-82
2023/04/09 07:55:14;;;;;;;25.88;19.23;;;12.20;99.90;;;;;;4789998;30;20183;-82
2023/04/09 07:57:42;;;;;;;22.35;17.92;;;12.40;99.90;;;;;;4773822;30;20223;-82
2023/04/09 08:00:08;;;;;;;23.70;18.23;;;12.50;99.90;;;;;;4773740;30;20191;-82
2023/04/09 08:02:34;;;;;;;24.40;19.15;;;12.60;99.90;;;;;;4790088;30;20203;-82
2023/04/09 08:05:01;;;;;;;25.43;19.70;;;12.60;99.90;;;;;;4789748;30;20202;-82
2023/04/09 08:07:26;;;;;;;27.40;20.80;;;12.70;99.90;;;;;;4789967;30;20873;-82
2023/04/09 08:09:52;;;;;;;24.13;18.30;;;12.80;99.90;;;;;;4773504;30;20225;-82
2023/04/09 08:12:18;;;;;;;24.73;19.67;;;12.80;99.90;;;;;;4773503;30;20298;-82
2023/04/09 08:14:44;;;;;;;24.63;18.87;;;12.70;99.90;;;;;;4773484;30;20183;-82
2023/04/09 08:17:09;;;;;;;25.17;19.80;;;12.70;99.90;;;;;;4789774;30;20563;-82
2023/04/09 08:19:35;;;;;;;24.70;19.87;;;12.80;99.90;;;;;;4789619;30;20420;-83
2023/04/09 08:22:01;;;;;;;24.27;19.17;;;12.80;99.90;;;;;;4773155;30;20245;-82
2023/04/09 08:24:27;;;;;;;24.70;19.77;;;12.90;99.90;;;;;;4773364;30;20424;-82
2023/04/09 08:26:53;;;;;;;27.33;20.67;;;12.90;99.90;;;;;;4789309;30;20701;-82
2023/04/09 08:29:18;;;;;;;25.60;21.17;;;12.90;99.90;;;;;;4788772;29;20737;-83
2023/04/09 08:31:44;;;;;;;25.43;19.27;;;13.10;99.90;;;;;;4772804;30;20601;-83
2023/04/09 08:34:10;;;;;;;25.40;19.87;;;13.30;99.90;;;;;;4789361;30;20183;-83
2023/04/09 08:36:36;;;;;;;25.83;18.73;;;13.60;99.90;;;;;;4773180;30;20697;-83
2023/04/09 08:39:02;;;;;;;25.63;19.80;;;13.80;99.90;;;;;;4773026;30;20462;-83
2023/04/09 08:41:28;;;;;;;27.53;20.90;;;14.00;99.90;;;;;;4772974;30;20737;-82
2023/04/09 08:43:55;;;;;;;26.27;19.67;;;14.20;99.90;;;;;;4772860;30;20515;-82
2023/04/09 08:46:22;;;;;;;26.57;19.93;;;14.20;99.90;;;;;;4788834;30;20466;-82
2023/04/09 08:48:50;;;;;;;24.33;18.83;;;14.50;99.90;;;;;;4773023;30;20937;-83
2023/04/09 08:51:20;;;;;;;27.03;19.80;;;14.90;99.90;;;;;;4772944;30;20533;-82
2023/04/09 08:53:59;;;;;;;23.67;18.80;;;15.40;99.90;;;;;;4773142;30;20424;-82
2023/04/09 08:56:25;;;;;;;24.43;20.13;;;15.70;99.90;;;;;;4772744;30;20486;-83
2023/04/09 08:58:52;;;;;;;22.53;18.33;;;15.90;99.90;;;;;;4788966;30;20411;-82
2023/04/09 09:01:25;;;;;;;25.97;20.33;;;16.00;99.90;;;;;;4788877;30;20508;-82
2023/04/09 09:03:59;;;;;;;25.60;20.27;;;16.20;99.90;;;;;;4772702;30;20443;-83
2023/04/09 09:06:31;;;;;;;26.80;20.17;;;16.40;99.90;;;;;;4789001;30;20454;-83
2023/04/09 09:09:09;;;;;;;25.30;20.80;;;16.40;99.90;;;;;;4788721;30;20404;-83
2023/04/09 09:11:38;;;;;;;24.30;18.17;;;16.30;99.90;;;;;;4772520;30;20502;-82
2023/04/09 09:14:10;;;;;;;25.50;19.77;;;16.40;99.90;;;;;;4772637;30;20423;-83
2023/04/09 09:16:43;;;;;;;26.80;20.93;;;16.40;99.90;;;;;;4772605;30;20510;-82
2023/04/09 09:19:24;;;;;;;26.63;19.20;;;16.40;99.90;;;;;;4788692;30;20439;-82
2023/04/09 09:22:03;;;;;;;28.37;21.20;;;16.50;99.90;;;;;;4772488;30;20512;-83
2023/04/09 09:24:31;;;;;;;24.10;19.00;;;16.50;99.90;;;;;;4788626;30;20435;-82
2023/04/09 09:26:57;;;;;;;23.30;19.80;;;16.70;99.90;;;;;;4788663;30;20448;-83
2023/04/09 09:29:23;;;;;;;28.00;22.33;;;16.60;99.90;;;;;;4772448;30;20434;-83
2023/04/09 09:31:51;;;;;;;31.53;24.83;;;16.70;99.90;;;;;;4788635;30;20486;-83
2023/04/09 09:34:18;;;;;;;27.67;21.30;;;16.60;99.90;;;;;;4772616;30;20914;-83
2023/04/09 09:36:45;;;;;;;27.70;20.53;;;16.50;99.90;;;;;;4772328;30;20523;-84
2023/04/09 09:39:12;;;;;;;23.27;19.67;;;16.30;99.90;;;;;;4772306;30;20423;-83
2023/04/09 09:41:41;;;;;;;25.83;20.10;;;16.10;99.90;;;;;;4789979;30;20465;-83
2023/04/09 09:44:08;;;;;;;24.17;19.63;;;15.90;99.90;;;;;;4792185;30;20420;-82
2023/04/09 09:46:37;;;;;;;26.17;20.17;;;15.70;99.90;;;;;;4772591;30;20487;-83
2023/04/09 09:49:03;;;;;;;27.10;22.93;;;15.50;99.90;;;;;;4772891;30;20427;-83
2023/04/09 09:51:30;;;;;;;37.07;25.90;;;15.40;99.90;;;;;;4773972;30;20623;-83
2023/04/09 09:53:57;;;;;;;27.77;20.97;;;15.30;99.90;;;;;;4772852;30;20613;-83
2023/04/09 09:56:31;;;;;;;30.97;23.20;;;15.40;99.90;;;;;;4774128;30;20460;-83
2023/04/09 09:59:02;;;;;;;29.50;22.57;;;15.40;99.90;;;;;;4774024;30;20792;-83
2023/04/09 10:01:28;;;;;;;25.20;19.17;;;15.40;99.90;;;;;;4774106;30;20998;-83
2023/04/09 10:03:58;;;;;;;28.30;21.23;;;15.30;99.90;;;;;;4773918;30;20918;-82
2023/04/09 10:06:26;;;;;;;29.43;22.30;;;15.20;99.90;;;;;;4773895;30;20498;-83
2023/04/09 10:08:56;;;;;;;27.40;20.97;;;15.10;99.90;;;;;;4772558;30;20420;-83
2023/04/09 10:11:23;;;;;;;26.70;21.77;;;14.90;99.90;;;;;;4773938;30;20890;-83
2023/04/09 10:13:59;;;;;;;27.17;21.50;;;14.80;99.90;;;;;;4772599;30;20495;-83
2023/04/09 10:16:27;;;;;;;27.07;20.80;;;14.70;99.90;;;;;;4773862;30;20854;-83
2023/04/09 10:18:56;;;;;;;25.30;21.10;;;14.60;99.90;;;;;;4773701;30;20501;-82
2023/04/09 10:21:44;;;;;;;27.67;22.23;;;14.40;99.90;;;;;;4772497;30;20490;-83
2023/04/09 10:24:11;;;;;;;26.70;21.53;;;14.30;99.90;;;;;;4772367;30;20475;-83
2023/04/09 10:26:40;;;;;;;27.60;22.17;;;14.10;99.90;;;;;;4772273;30;20479;-83
2023/04/09 10:29:15;;;;;;;27.50;22.13;;;14.10;99.90;;;;;;4772322;30;20435;-83
2023/04/09 10:32:05;;;;;;;28.70;21.63;;;14.10;99.90;;;;;;4773494;30;20562;-83
2023/04/09 10:34:43;;;;;;;26.60;19.00;;;14.00;99.90;;;;;;4766636;30;20513;-82
2023/04/09 10:37:30;;;;;;;26.83;20.27;;;14.00;99.90;;;;;;4772217;30;20867;-83
2023/04/09 10:39:56;;;;;;;29.20;21.30;;;14.00;99.90;;;;;;4772134;30;20444;-83
2023/04/09 10:42:35;;;;;;;28.03;22.70;;;14.10;99.90;;;;;;4771960;30;20883;-82
2023/04/09 10:45:15;;;;;;;29.77;20.90;;;14.20;99.90;;;;;;4773195;30;20427;-83
2023/04/09 10:47:42;;;;;;;26.17;20.50;;;14.30;99.90;;;;;;4771820;30;20494;-83
2023/04/09 10:50:16;;;;;;;27.10;21.40;;;14.40;99.90;;;;;;4773178;30;20476;-82
2023/04/09 10:52:43;;;;;;;23.37;20.50;;;14.40;99.90;;;;;;4772626;30;21000;-82
2023/04/09 10:55:09;;;;;;;26.57;19.23;;;14.40;99.90;;;;;;4771904;30;20795;-82
2023/04/09 10:57:35;;;;;;;25.60;19.00;;;14.40;99.90;;;;;;4773198;30;20468;-83
2023/04/09 11:00:01;;;;;;;25.37;20.77;;;14.30;99.90;;;;;;4771827;30;20797;-82
2023/04/09 11:02:38;;;;;;;29.23;20.53;;;14.30;99.90;;;;;;4771810;30;21068;-82
2023/04/09 11:05:23;;;;;;;26.80;20.00;;;14.30;99.90;;;;;;4772021;30;20268;-83
2023/04/09 11:08:10;;;;;;;27.10;20.77;;;14.20;99.90;;;;;;4771707;30;20821;-82
2023/04/09 11:10:37;;;;;;;25.27;19.07;;;14.10;99.90;;;;;;4772887;30;20467;-82
2023/04/09 11:13:04;;;;;;;27.80;21.20;;;14.00;99.90;;;;;;4771421;30;20513;-82
2023/04/09 11:15:33;;;;;;;30.43;22.70;;;14.00;99.90;;;;;;4771405;30;20965;-83
2023/04/09 11:17:59;;;;;;;30.40;22.20;;;13.90;99.90;;;;;;4771542;30;20456;-83
2023/04/09 11:20:25;;;;;;;32.47;23.63;;;13.90;99.90;;;;;;4771490;30;20424;-83
2023/04/09 11:22:52;;;;;;;30.30;21.93;;;13.90;99.90;;;;;;4773011;30;20809;-82
2023/04/09 11:25:23;;;;;;;26.60;20.80;;;13.90;99.90;;;;;;4772650;30;20423;-83
2023/04/09 11:27:50;;;;;;;25.10;20.57;;;13.90;99.90;;;;;;4771465;30;20467;-83
2023/04/09 11:30:15;;;;;;;24.27;18.47;;;13.80;99.90;;;;;;4772513;30;20476;-83
2023/04/09 11:32:41;;;;;;;28.60;21.53;;;13.80;99.90;;;;;;4772883;30;20563;-82
2023/04/09 11:35:12;;;;;;;30.87;20.93;;;13.80;99.90;;;;;;4771198;30;20233;-82
2023/04/09 11:37:38;;;;;;;25.90;20.03;;;13.70;99.90;;;;;;4772262;30;20269;-82
2023/04/09 11:40:04;;;;;;;27.83;20.17;;;13.70;99.90;;;;;;4771034;30;20435;-82
2023/04/09 11:42:36;;;;;;;28.20;20.23;;;13.70;99.90;;;;;;4772492;30;20463;-82
2023/04/09 11:45:03;;;;;;;31.97;22.10;;;13.60;99.90;;;;;;4771121;30;20436;-82
2023/04/09 11:47:29;;;;;;;30.43;20.67;;;13.70;99.90;;;;;;4782721;30;20479;-82
2023/04/09 11:49:55;;;;;;;27.27;19.83;;;13.70;99.90;;;;;;4773942;30;20574;-82
2023/04/09 11:52:21;;;;;;;27.17;20.17;;;13.70;99.90;;;;;;4790454;30;20538;-83
2023/04/09 11:54:50;;;;;;;27.03;19.70;;;13.70;99.90;;;;;;4773785;30;20195;-83
2023/04/09 11:57:16;;;;;;;28.90;20.83;;;13.70;99.90;;;;;;4790206;30;20458;-83
2023/04/09 11:59:42;;;;;;;23.93;19.27;;;13.80;99.90;;;;;;4773738;30;20416;-81
2023/04/09 12:02:08;;;;;;;25.50;19.60;;;13.80;99.90;;;;;;4773731;30;20463;-83
2023/04/09 12:04:34;;;;;;;30.13;20.60;;;13.80;99.90;;;;;;4787036;29;20661;-83
2023/04/09 12:06:59;;;;;;;29.37;20.47;;;13.80;99.90;;;;;;4773630;30;20219;-83
2023/04/09 12:09:26;;;;;;;26.97;19.67;;;13.90;99.90;;;;;;4771443;30;21018;-82
2023/04/09 12:11:51;;;;;;;25.13;18.73;;;13.90;99.90;;;;;;4771494;30;20278;-81
2023/04/09 12:14:20;;;;;;;25.93;19.60;;;14.00;99.90;;;;;;4771419;30;20493;-83
2023/04/09 12:16:50;;;;;;;23.73;18.07;;;14.00;99.90;;;;;;4771308;30;20611;-82
2023/04/09 12:19:18;;;;;;;24.97;19.90;;;14.00;99.90;;;;;;4787595;30;20419;-82
2023/04/09 12:21:49;;;;;;;24.93;19.40;;;14.10;99.90;;;;;;4772217;30;20873;-83
2023/04/09 12:24:18;;;;;;;25.90;18.80;;;14.10;99.90;;;;;;4773414;30;20791;-83
2023/04/09 12:26:45;;;;;;;28.37;21.90;;;14.10;99.90;;;;;;4787638;30;20851;-83
2023/04/09 12:29:12;;;;;;;29.47;22.33;;;14.10;99.90;;;;;;4771361;30;20481;-83
2023/04/09 12:31:38;;;;;;;27.30;20.37;;;14.00;99.90;;;;;;4770998;30;20507;-82
2023/04/09 12:34:04;;;;;;;28.73;21.47;;;14.00;99.90;;;;;;4771212;30;20945;-83
2023/04/09 12:36:29;;;;;;;29.53;19.47;;;14.00;99.90;;;;;;4787384;30;20203;-82